Aérodrome :
LOGIN :

S'inscrire | Disclaimer

   EN    FR    IT 

 










Légende :    VFR   VFR Marginal   IFR   IFR Intensif   IFR Très Intensif
Visi : 
Plafond : 
>= 8 km
>= 3000ft
5 à 8 km
1000 à 3000 ft
1500m à 5 km
500 à 1000 ft
800 à 1500m
200 à 500 ft
< 800m
< 200 ft
Symboles :   Orages  Brouillard  Fortes neiges  Fortes précipitations  Vent > 20 kt
SIGMETs :   Divers  Orages  Givrage  Turbulence  Onde Orograph.  Cendres Volcan.






- Altitude de l'aérodrome : 1682 ft
- Code IATA : VIT


LEVT - Vitoria Gasteiz

DERNIER METAR :
  • 142330Z 22006KT 9999 FEW015 SCT025 02/01 Q1000

METARs EXPIRÉS :
  • 142300Z 21004KT 9999 FEW015 SCT025 02/01 Q1000
  • 142230Z VRB02KT 9999 SCT015 BKN030 04/02 Q1000
  • 142200Z 27003KT 200V330 9999 SCT015 BKN030 04/02 Q1000
  • 142130Z 26005KT 9999 SCT015 BKN030 04/03 Q1000
  • 142100Z 26003KT 240V300 9999 SCT015 SCT030 04/03 Q0999

TAF TAF LEVT
Valide du 15 à 00h jusqu'au 16 à 00h UTC


142300Z 1500/1524 25007KT 9999 SCT015 BKN030 TX07/1512Z TN01/1506Z
PROB30
TEMPO 1503/1506 3000 -SHRASN SCT025TCU
PROB30
TEMPO 1506/1509 26016G28KT 4000 SHRAGS TS BKN020CB
BECMG 1508/1510 34012G22KT
PROB40
TEMPO 1508/1518 3000 SHRA BKN014 SCT030TCU
BECMG 1512/1516 27008KT



MET'MAP, la Météo Aéronautique d'un coup d'oeil ! - Copyright ORBIFLY Décembre 2007 - Disclaimer

ORBIFLY MET'MAP TEAM :

Programmation & Développement : Alexandra Zaïnal
Conception & Développement : Baudouin d'Aumeries
Co-Programmation & Développement : Marc-Olivier Méhu
Soutien technique & logistique : Manuel Goepfert

Contact : metmap@orbifly.com




SOURCES & CREDITS :

   NOAA